createdAt,value
2023-01-27T00:02:56.701Z,18.65
2023-01-27T00:05:24.094Z,18.85
2023-01-27T00:07:51.068Z,17.52
2023-01-27T00:10:19.922Z,17.40
2023-01-27T00:13:06.769Z,20.80
2023-01-27T00:15:34.300Z,20.05
2023-01-27T00:18:01.447Z,18.37
2023-01-27T00:20:47.254Z,18.50
2023-01-27T00:23:38.458Z,20.00
2023-01-27T00:26:08.311Z,18.40
2023-01-27T00:28:36.060Z,19.60
2023-01-27T00:31:04.264Z,17.02
2023-01-27T00:33:31.142Z,17.02
2023-01-27T00:38:28.053Z,17.58
2023-01-27T00:41:13.842Z,17.62
2023-01-27T00:43:40.699Z,19.25
2023-01-27T00:48:34.730Z,18.30
2023-01-27T00:51:01.859Z,18.60
2023-01-27T00:53:28.902Z,17.30
2023-01-27T00:55:55.777Z,17.65
2023-01-27T01:00:49.586Z,18.65
2023-01-27T01:03:16.433Z,17.05
2023-01-27T01:08:09.962Z,17.33
2023-01-27T01:15:31.512Z,15.57
2023-01-27T01:20:25.081Z,17.05
2023-01-27T01:25:18.675Z,16.15
2023-01-27T01:27:46.003Z,15.30
2023-01-27T01:30:13.500Z,15.20
2023-01-27T01:32:40.578Z,14.00
2023-01-27T01:37:34.233Z,13.95
2023-01-27T01:42:53.131Z,13.52
2023-01-27T01:45:32.208Z,14.27
2023-01-27T01:48:01.416Z,14.65
2023-01-27T01:50:28.265Z,15.85
2023-01-27T01:55:22.825Z,15.40
2023-01-27T01:57:49.998Z,15.63
2023-01-27T02:00:17.563Z,15.25
2023-01-27T02:02:44.834Z,16.10
2023-01-27T02:05:18.960Z,15.95
2023-01-27T02:08:20.738Z,16.35
2023-01-27T02:10:48.296Z,16.60
2023-01-27T02:13:15.177Z,15.38
2023-01-27T02:15:42.106Z,15.55
2023-01-27T02:18:09.385Z,15.80
2023-01-27T02:20:41.938Z,15.30
2023-01-27T02:23:30.519Z,15.95
2023-01-27T02:26:28.112Z,31.77
2023-01-27T02:28:58.476Z,17.40
2023-01-27T02:31:25.697Z,16.80
2023-01-27T02:33:55.808Z,18.35
2023-01-27T02:36:22.781Z,18.25
2023-01-27T02:38:54.256Z,15.63
2023-01-27T02:41:35.777Z,16.52
2023-01-27T02:44:02.849Z,15.82
2023-01-27T02:46:30.189Z,15.77
2023-01-27T02:48:57.063Z,16.90
2023-01-27T02:53:50.691Z,15.32
2023-01-27T02:56:17.551Z,15.23
2023-01-27T03:01:11.311Z,15.23
2023-01-27T03:03:44.361Z,16.00
2023-01-27T03:06:11.611Z,15.80
2023-01-27T03:08:38.489Z,15.02
2023-01-27T03:13:32.145Z,16.30
2023-01-27T03:18:49.824Z,14.95
2023-01-27T03:21:19.965Z,17.55
2023-01-27T03:23:49.248Z,16.73
2023-01-27T03:26:16.571Z,16.05
2023-01-27T03:28:43.966Z,18.23
2023-01-27T03:31:21.957Z,17.05
2023-01-27T03:33:48.967Z,16.35
2023-01-27T03:36:35.016Z,16.80
2023-01-27T03:39:20.671Z,17.37
2023-01-27T03:42:06.430Z,18.37
2023-01-27T03:44:51.913Z,17.48
2023-01-27T03:47:18.802Z,16.05
2023-01-27T03:52:12.567Z,16.35
2023-01-27T03:57:06.657Z,17.45
2023-01-27T03:59:33.605Z,15.68
2023-01-27T04:05:05.884Z,16.02
2023-01-27T04:07:35.998Z,16.50
2023-01-27T04:10:04.419Z,16.30
2023-01-27T04:12:31.511Z,16.02
2023-01-27T04:14:58.431Z,17.30
2023-01-27T04:19:52.045Z,14.55
2023-01-27T04:24:45.679Z,14.07
2023-01-27T04:29:41.758Z,14.60
2023-01-27T04:32:10.241Z,13.95
2023-01-27T04:34:37.736Z,15.25
2023-01-27T04:37:06.028Z,14.90
2023-01-27T04:39:33.528Z,14.82
2023-01-27T04:42:00.443Z,15.82
2023-01-27T04:44:27.319Z,14.40
2023-01-27T04:49:23.962Z,14.77
2023-01-27T04:51:50.843Z,15.23
2023-01-27T04:56:58.287Z,15.20
2023-01-27T04:59:25.366Z,15.02
2023-01-27T05:01:52.507Z,15.77
2023-01-27T05:04:19.448Z,14.32
2023-01-27T05:09:13.131Z,14.35
2023-01-27T05:11:40.220Z,15.52
2023-01-27T05:16:33.796Z,15.00
2023-01-27T05:19:00.695Z,14.77
2023-01-27T05:23:58.098Z,14.73
2023-01-27T05:26:27.599Z,15.98
2023-01-27T05:28:57.363Z,15.18
2023-01-27T05:31:27.103Z,16.60
2023-01-27T05:33:55.317Z,16.33
2023-01-27T05:36:23.529Z,15.35
2023-01-27T05:38:50.371Z,16.42
2023-01-27T05:43:46.002Z,15.15
2023-01-27T05:46:15.311Z,15.68
2023-01-27T05:48:44.249Z,16.92
2023-01-27T05:51:14.672Z,15.85
2023-01-27T05:53:42.328Z,16.17
2023-01-27T05:56:10.763Z,16.87
2023-01-27T05:58:38.306Z,17.23
2023-01-27T06:01:13.957Z,16.17
2023-01-27T06:03:41.479Z,17.42
2023-01-27T06:06:09.796Z,16.05
2023-01-27T06:08:37.463Z,17.45
2023-01-27T06:11:05.081Z,16.27
2023-01-27T06:13:32.421Z,16.20
2023-01-27T06:15:59.379Z,16.15
2023-01-27T06:18:26.305Z,16.33
2023-01-27T06:20:53.193Z,17.17
2023-01-27T06:25:48.436Z,15.25
2023-01-27T06:28:28.109Z,15.82
2023-01-27T06:30:56.787Z,16.20
2023-01-27T06:33:24.139Z,15.98
2023-01-27T06:35:51.065Z,16.30
2023-01-27T06:38:17.940Z,16.70
2023-01-27T06:43:14.796Z,15.32
2023-01-27T06:45:41.677Z,15.60
2023-01-27T06:50:36.427Z,16.55
2023-01-27T06:53:05.768Z,16.20
2023-01-27T06:55:33.807Z,15.68
2023-01-27T06:58:02.302Z,16.25
2023-01-27T07:00:29.466Z,17.10
2023-01-27T07:02:56.820Z,16.00
2023-01-27T07:05:23.892Z,16.25
2023-01-27T07:07:50.759Z,16.00
2023-01-27T07:12:44.562Z,15.60
2023-01-27T07:15:11.691Z,15.93
2023-01-27T07:17:38.791Z,17.48
2023-01-27T07:20:08.437Z,16.02
2023-01-27T07:22:35.422Z,16.90
2023-01-27T07:25:03.018Z,15.38
2023-01-27T07:27:29.920Z,17.58
2023-01-27T07:32:23.489Z,14.82
2023-01-27T07:37:17.138Z,15.48
2023-01-27T07:39:44.106Z,15.07
2023-01-27T07:44:37.718Z,14.13
2023-01-27T07:51:59.429Z,13.90
2023-01-27T07:54:26.343Z,14.45
2023-01-27T07:59:20.104Z,15.15
2023-01-27T08:01:48.310Z,13.82
2023-01-27T08:04:16.380Z,13.30
2023-01-27T08:06:43.320Z,15.10
2023-01-27T08:09:10.353Z,14.82
2023-01-27T08:11:37.377Z,13.40
2023-01-27T08:14:04.305Z,13.48
2023-01-27T08:18:58.886Z,14.63
2023-01-27T08:21:25.916Z,14.87
2023-01-27T08:23:54.004Z,14.93
2023-01-27T08:26:20.903Z,13.68
2023-01-27T08:31:16.753Z,11.85
2023-01-27T08:33:45.619Z,12.98
2023-01-27T08:36:15.037Z,14.00
2023-01-27T08:38:43.019Z,14.73
2023-01-27T08:41:13.138Z,14.13
2023-01-27T08:43:40.842Z,14.23
2023-01-27T08:46:08.838Z,13.93
2023-01-27T08:48:36.767Z,14.95
2023-01-27T08:51:04.619Z,14.87
2023-01-27T08:53:31.665Z,14.55
2023-01-27T08:56:02.999Z,14.02
2023-01-27T08:58:29.911Z,14.25
2023-01-27T09:03:26.366Z,12.63
2023-01-27T09:05:53.351Z,15.35
2023-01-27T09:08:20.253Z,12.88
2023-01-27T09:13:13.761Z,15.13
2023-01-27T09:18:08.037Z,12.82
2023-01-27T09:20:37.226Z,13.52
2023-01-27T09:23:05.337Z,13.43
2023-01-27T09:25:32.227Z,14.63
2023-01-27T09:27:59.871Z,12.23
2023-01-27T09:30:28.464Z,12.95
2023-01-27T09:32:59.343Z,12.80
2023-01-27T09:35:27.760Z,15.60
2023-01-27T09:37:58.515Z,16.02
2023-01-27T09:40:43.984Z,13.90
2023-01-27T09:43:18.075Z,13.02
2023-01-27T09:45:56.847Z,13.57
2023-01-27T09:48:27.609Z,14.55
2023-01-27T09:51:08.784Z,13.57
2023-01-27T09:54:14.511Z,13.85
2023-01-27T09:57:00.399Z,14.07
2023-01-27T10:00:08.981Z,14.15
2023-01-27T10:02:51.493Z,15.57
2023-01-27T10:05:45.991Z,15.02
2023-01-27T10:08:19.080Z,16.52
2023-01-27T10:10:59.132Z,16.75
2023-01-27T10:13:30.056Z,13.32
2023-01-27T10:16:10.516Z,14.90
2023-01-27T10:19:03.879Z,14.40
2023-01-27T10:21:52.087Z,14.95
2023-01-27T10:24:40.540Z,15.05
2023-01-27T10:27:20.227Z,14.98
2023-01-27T10:32:57.692Z,14.77
2023-01-27T10:35:53.729Z,15.18
2023-01-27T10:39:14.109Z,14.05
2023-01-27T10:42:02.113Z,13.77
2023-01-27T10:47:38.688Z,12.40
2023-01-27T10:50:09.911Z,12.85
2023-01-27T10:53:00.154Z,14.05
2023-01-27T10:55:33.568Z,10.88
2023-01-27T10:58:37.302Z,13.65
2023-01-27T11:01:23.862Z,13.95
2023-01-27T11:03:59.333Z,12.83
2023-01-27T11:06:31.318Z,12.95
2023-01-27T11:09:19.743Z,11.18
2023-01-27T11:11:49.476Z,13.20
2023-01-27T11:14:30.588Z,12.18
2023-01-27T11:17:36.970Z,11.88
2023-01-27T11:20:29.697Z,12.32
2023-01-27T11:23:26.571Z,9.98
2023-01-27T11:26:15.180Z,10.50
2023-01-27T11:28:55.775Z,11.77
2023-01-27T11:31:43.416Z,10.95
2023-01-27T11:34:33.928Z,12.48
2023-01-27T11:37:02.798Z,12.32
2023-01-27T11:39:32.768Z,13.15
2023-01-27T11:41:59.747Z,11.38
2023-01-27T11:44:33.036Z,13.55
2023-01-27T11:47:00.188Z,11.90
2023-01-27T11:49:39.436Z,11.43
2023-01-27T11:52:13.133Z,12.30
2023-01-27T11:54:47.391Z,13.13
2023-01-27T11:57:23.780Z,12.50
2023-01-27T12:00:04.485Z,13.45
2023-01-27T12:03:10.143Z,13.23
2023-01-27T12:05:41.707Z,12.25
2023-01-27T12:08:08.686Z,14.32
2023-01-27T12:13:25.876Z,13.68
2023-01-27T12:15:56.198Z,12.63
2023-01-27T12:18:26.418Z,12.35
2023-01-27T12:21:05.106Z,12.75
2023-01-27T12:23:36.230Z,13.32
2023-01-27T12:26:08.222Z,13.43
2023-01-27T12:28:35.716Z,13.57
2023-01-27T12:31:11.320Z,11.77
2023-01-27T12:33:41.162Z,13.23
2023-01-27T12:36:14.568Z,13.65
2023-01-27T12:38:49.226Z,13.75
2023-01-27T12:41:24.103Z,14.35
2023-01-27T12:43:53.637Z,14.80
2023-01-27T12:46:24.059Z,13.27
2023-01-27T12:48:53.216Z,14.10
2023-01-27T12:51:24.811Z,15.07
2023-01-27T12:53:51.816Z,14.32
2023-01-27T12:56:21.437Z,11.98
2023-01-27T12:58:54.554Z,13.35
2023-01-27T13:01:26.368Z,14.75
2023-01-27T13:04:01.768Z,12.88
2023-01-27T13:06:37.699Z,12.63
2023-01-27T13:09:04.710Z,14.27
2023-01-27T13:11:41.726Z,13.70
2023-01-27T13:14:13.814Z,13.73
2023-01-27T13:16:40.715Z,14.50
2023-01-27T13:19:17.258Z,12.98
2023-01-27T13:21:45.571Z,11.53
2023-01-27T13:24:24.579Z,14.52
2023-01-27T13:26:52.441Z,13.93
2023-01-27T13:29:26.206Z,15.05
2023-01-27T13:31:59.220Z,13.70
2023-01-27T13:34:37.961Z,13.15
2023-01-27T13:37:10.912Z,15.45
2023-01-27T13:39:59.999Z,15.10
2023-01-27T13:42:45.159Z,13.93
2023-01-27T13:45:17.056Z,15.02
2023-01-27T13:47:57.347Z,15.63
2023-01-27T13:50:32.593Z,13.73
2023-01-27T13:53:00.643Z,15.13
2023-01-27T13:55:58.417Z,13.98
2023-01-27T13:58:28.356Z,14.57
2023-01-27T14:01:07.404Z,14.63
2023-01-27T14:04:02.874Z,13.10
2023-01-27T14:06:44.657Z,14.85
2023-01-27T14:09:35.934Z,15.18
2023-01-27T14:12:25.292Z,14.57
2023-01-27T14:14:58.898Z,16.02
2023-01-27T14:17:46.411Z,15.43
2023-01-27T14:20:28.919Z,15.07
2023-01-27T14:23:21.705Z,14.60
2023-01-27T14:26:10.697Z,15.98
2023-01-27T14:28:55.127Z,15.35
2023-01-27T14:31:43.654Z,15.60
2023-01-27T14:34:45.878Z,15.65
2023-01-27T14:37:30.858Z,12.80
2023-01-27T14:40:14.307Z,15.40
2023-01-27T14:43:11.233Z,15.25
2023-01-27T14:45:40.797Z,16.12
2023-01-27T14:48:10.836Z,14.80
2023-01-27T14:50:46.909Z,12.18
2023-01-27T14:53:36.068Z,12.02
2023-01-27T14:56:18.452Z,12.37
2023-01-27T14:58:54.547Z,14.18
2023-01-27T15:01:40.295Z,13.75
2023-01-27T15:04:42.547Z,13.60
2023-01-27T15:07:20.208Z,14.52
2023-01-27T15:10:36.786Z,14.98
2023-01-27T15:13:27.861Z,12.73
2023-01-27T15:15:54.675Z,12.88
2023-01-27T15:21:36.567Z,11.93
2023-01-27T15:24:25.705Z,13.70
2023-01-27T15:26:53.455Z,14.48
2023-01-27T15:29:25.664Z,11.50
2023-01-27T15:32:13.267Z,12.37
2023-01-27T15:34:40.247Z,10.07
2023-01-27T15:37:10.149Z,12.35
2023-01-27T15:40:06.178Z,12.25
2023-01-27T15:42:58.085Z,11.80
2023-01-27T15:45:30.519Z,12.20
2023-01-27T15:48:00.024Z,13.80
2023-01-27T15:50:30.999Z,12.80
2023-01-27T15:53:14.977Z,11.65
2023-01-27T15:55:51.445Z,14.27
2023-01-27T15:58:38.096Z,14.47
2023-01-27T16:01:08.452Z,11.55
2023-01-27T16:03:38.089Z,10.65
2023-01-27T16:06:12.477Z,10.88
2023-01-27T16:08:43.488Z,11.80
2023-01-27T16:11:29.876Z,11.43
2023-01-27T16:14:12.045Z,13.20
2023-01-27T16:16:40.155Z,12.60
2023-01-27T16:19:10.870Z,13.52
2023-01-27T16:21:42.433Z,12.82
2023-01-27T16:24:42.358Z,14.45
2023-01-27T16:27:34.727Z,11.95
2023-01-27T16:30:15.198Z,10.93
2023-01-27T16:32:50.907Z,10.88
2023-01-27T16:35:20.655Z,14.95
2023-01-27T16:38:01.108Z,14.20
2023-01-27T16:40:28.278Z,11.95
2023-01-27T16:43:08.585Z,12.00
2023-01-27T16:45:47.852Z,14.52
2023-01-27T16:48:38.539Z,15.57
2023-01-27T16:51:19.438Z,11.93
2023-01-27T16:53:50.566Z,13.38
2023-01-27T16:56:29.242Z,14.13
2023-01-27T16:59:21.570Z,13.20
2023-01-27T17:01:56.452Z,13.55
2023-01-27T17:04:26.084Z,13.35
2023-01-27T17:06:56.551Z,15.27
2023-01-27T17:09:26.040Z,13.73
2023-01-27T17:11:53.918Z,12.85
2023-01-27T17:14:30.549Z,15.27
2023-01-27T17:17:01.184Z,16.15
2023-01-27T17:19:31.836Z,16.87
2023-01-27T17:22:11.632Z,14.75
2023-01-27T17:24:43.856Z,14.20
2023-01-27T17:27:21.582Z,15.88
2023-01-27T17:29:50.166Z,10.30
2023-01-27T17:32:30.835Z,14.85
2023-01-27T17:34:59.992Z,14.70
2023-01-27T17:37:28.041Z,15.20
2023-01-27T17:39:57.758Z,16.10
2023-01-27T17:42:26.508Z,14.43
2023-01-27T17:44:53.380Z,15.85
2023-01-27T17:49:49.077Z,14.40
2023-01-27T17:52:20.219Z,13.55
2023-01-27T17:54:47.229Z,15.85
2023-01-27T17:57:21.398Z,14.10
2023-01-27T18:00:07.192Z,13.80
2023-01-27T18:02:36.382Z,14.18
2023-01-27T18:05:14.452Z,13.57
2023-01-27T18:07:41.604Z,16.95
2023-01-27T18:10:28.650Z,14.95
2023-01-27T18:12:55.748Z,15.53
2023-01-27T18:15:37.824Z,15.73
2023-01-27T18:18:24.725Z,15.82
2023-01-27T18:21:04.612Z,16.05
2023-01-27T18:23:43.410Z,17.25
2023-01-27T18:26:20.740Z,14.52
2023-01-27T18:31:27.135Z,14.07
2023-01-27T18:34:22.934Z,16.40
2023-01-27T18:36:54.210Z,14.13
2023-01-27T18:39:33.427Z,18.02
2023-01-27T18:42:01.468Z,15.23
2023-01-27T18:44:34.381Z,15.52
2023-01-27T18:47:19.767Z,17.00
2023-01-27T18:49:54.586Z,17.20
2023-01-27T18:52:21.678Z,18.85
2023-01-27T18:54:48.923Z,17.90
2023-01-27T18:57:15.787Z,17.30
2023-01-27T19:02:15.054Z,17.52
2023-01-27T19:04:42.481Z,12.73
2023-01-27T19:07:13.912Z,16.27
2023-01-27T19:09:40.759Z,16.08
2023-01-27T19:14:35.075Z,15.85
2023-01-27T19:17:02.014Z,16.75
2023-01-27T19:19:29.397Z,17.50
2023-01-27T19:21:56.278Z,16.85
2023-01-27T19:26:49.996Z,17.48
2023-01-27T19:31:43.607Z,18.15
2023-01-27T19:34:11.125Z,14.55
2023-01-27T19:36:42.961Z,17.00
2023-01-27T19:39:17.596Z,18.75
2023-01-27T19:41:47.521Z,18.05
2023-01-27T19:44:15.273Z,18.70
2023-01-27T19:46:43.150Z,15.43
2023-01-27T19:49:19.891Z,18.12
2023-01-27T19:51:46.861Z,18.30
2023-01-27T19:54:13.713Z,17.45
2023-01-27T19:59:08.333Z,17.42
2023-01-27T20:01:35.277Z,19.23
2023-01-27T20:04:02.220Z,17.67
2023-01-27T20:06:31.427Z,16.95
2023-01-27T20:08:59.951Z,18.30
2023-01-27T20:11:31.328Z,18.77
2023-01-27T20:13:58.770Z,19.33
2023-01-27T20:16:25.894Z,18.55
2023-01-27T20:18:54.057Z,19.92
2023-01-27T20:21:21.148Z,17.83
2023-01-27T20:23:48.056Z,19.92
2023-01-27T20:26:20.822Z,19.75
2023-01-27T20:28:49.032Z,18.85
2023-01-27T20:31:18.986Z,20.35
2023-01-27T20:33:50.132Z,20.05
2023-01-27T20:36:22.803Z,19.25
2023-01-27T20:38:49.999Z,19.10
2023-01-27T20:41:19.317Z,18.90
2023-01-27T20:43:46.553Z,19.37
2023-01-27T20:46:17.057Z,18.95
2023-01-27T20:48:44.463Z,21.15
2023-01-27T20:51:14.059Z,19.33
2023-01-27T20:53:45.481Z,20.52
2023-01-27T20:56:20.843Z,20.40
2023-01-27T20:58:48.221Z,20.70
2023-01-27T21:01:22.699Z,20.23
2023-01-27T21:03:50.800Z,18.87
2023-01-27T21:06:20.095Z,21.25
2023-01-27T21:08:50.133Z,20.30
2023-01-27T21:11:20.192Z,20.48
2023-01-27T21:13:47.974Z,19.50
2023-01-27T21:16:15.347Z,19.20
2023-01-27T21:18:42.548Z,17.40
2023-01-27T21:21:22.143Z,18.30
2023-01-27T21:23:49.018Z,19.60
2023-01-27T21:28:42.606Z,19.08
2023-01-27T21:31:12.024Z,20.20
2023-01-27T21:33:39.658Z,18.42
2023-01-27T21:36:10.297Z,21.02
2023-01-27T21:38:38.418Z,20.90
2023-01-27T21:41:37.041Z,21.33
2023-01-27T21:44:23.480Z,20.90
2023-01-27T21:46:50.412Z,20.88
2023-01-27T21:49:17.320Z,19.02
2023-01-27T21:54:10.935Z,19.45
2023-01-27T21:59:04.840Z,18.80
2023-01-27T22:01:31.897Z,18.95
2023-01-27T22:03:58.853Z,20.70
2023-01-27T22:06:25.822Z,19.12
2023-01-27T22:08:52.746Z,18.20
2023-01-27T22:11:19.654Z,19.12
2023-01-27T22:13:46.550Z,19.05
2023-01-27T22:18:42.119Z,18.23
2023-01-27T22:21:09.671Z,20.17
2023-01-27T22:23:36.581Z,18.70
2023-01-27T22:26:06.853Z,20.62
2023-01-27T22:28:33.778Z,17.60
2023-01-27T22:33:28.092Z,18.55
2023-01-27T22:36:05.128Z,18.52
2023-01-27T22:38:32.031Z,18.92
2023-01-27T22:40:59.071Z,18.23
2023-01-27T22:43:26.036Z,17.10
2023-01-27T22:45:53.003Z,18.92
2023-01-27T22:48:19.967Z,19.27
2023-01-27T22:50:46.857Z,18.52
2023-01-27T22:55:40.412Z,18.08
2023-01-27T23:00:34.106Z,17.35
2023-01-27T23:05:28.185Z,17.47
2023-01-27T23:07:55.005Z,16.60
2023-01-27T23:12:48.594Z,15.13
2023-01-27T23:15:15.793Z,17.25
2023-01-27T23:17:42.767Z,18.30
2023-01-27T23:22:36.797Z,16.00
2023-01-27T23:25:03.733Z,15.07
2023-01-27T23:27:30.715Z,17.87
2023-01-27T23:29:57.570Z,16.50
2023-01-27T23:34:51.078Z,15.95
2023-01-27T23:39:48.789Z,17.50
2023-01-27T23:42:19.696Z,17.27
2023-01-27T23:44:47.021Z,15.60
2023-01-27T23:47:14.871Z,16.33
2023-01-27T23:49:41.716Z,17.67
2023-01-27T23:54:35.220Z,19.62
2023-01-27T23:59:28.785Z,16.73
